Terminal Aerodrome Forecast
Issued by NWS Northern Indiana

Home | Current Version | Previous Version | Text Only | Print | Product List | Glossary Off
Versions: 1 2 3 4 5 6 7 8 9 10 11 12 13 14

000
FTUS43 KIWX 221807 RRB
TAFFWA

KFWA 221806Z 2218/2318 32007KT P6SM -SN SCT020 OVC025
     FM222000 27005KT P6SM BKN025
     FM230500 VRB03KT P6SM BKN035=

USA.gov is the U.S. government's official web portal to all federal, state and local government web resources and services.